Time;durP1;ratioP1;P1;durP2;ratioP2;P2;SDS_P1;SDS_P2;PMS_P1;PMS_P2;Temp;Humidity;BMP_temperature;BMP_pressure;BME280_temperature;BME280_humidity;BME280_pressure;Samples;Min_cycle;Max_cycle;Signal;HPM_P1;HPM_P2
2022/08/17 00:00:43;;;;;;;20.10;13.53;;;17.20;99.90;;;;;;4375121;28;660334;-67
2022/08/17 00:03:32;;;;;;;17.53;13.43;;;17.20;99.90;;;;;;4349713;28;660014;-67
2022/08/17 00:06:22;;;;;;;21.65;13.77;;;17.20;99.90;;;;;;4370632;28;659499;-66
2022/08/17 00:09:09;;;;;;;23.10;13.50;;;17.10;99.90;;;;;;4341893;28;659872;-66
2022/08/17 00:11:56;;;;;;;18.60;13.53;;;17.10;99.90;;;;;;4339372;28;660331;-67
2022/08/17 00:14:43;;;;;;;19.23;12.97;;;17.00;99.90;;;;;;4364808;28;660275;-67
2022/08/17 00:17:30;;;;;;;19.93;13.73;;;16.90;99.90;;;;;;4349284;28;659845;-68
2022/08/17 00:20:18;;;;;;;23.43;13.97;;;16.90;99.90;;;;;;4376986;28;660177;-67
2022/08/17 00:23:08;;;;;;;21.30;13.90;;;16.90;99.90;;;;;;4359250;28;660009;-67
2022/08/17 00:25:55;;;;;;;23.43;14.03;;;16.80;99.90;;;;;;4357628;28;659599;-66
2022/08/17 00:28:43;;;;;;;21.43;13.90;;;16.90;99.90;;;;;;4374250;28;659957;-67
2022/08/17 00:31:30;;;;;;;20.60;13.83;;;16.90;99.90;;;;;;4367972;28;660261;-68
2022/08/17 00:34:17;;;;;;;20.53;14.23;;;16.90;99.90;;;;;;4377328;28;659486;-67
2022/08/17 00:37:05;;;;;;;23.07;14.77;;;17.00;99.90;;;;;;4344710;28;660170;-68
2022/08/17 00:39:54;;;;;;;23.03;14.40;;;16.90;99.90;;;;;;4376822;28;659871;-67
2022/08/17 00:42:41;;;;;;;26.83;14.70;;;16.90;99.90;;;;;;4360299;28;659717;-67
2022/08/17 00:45:28;;;;;;;19.17;14.13;;;17.00;99.90;;;;;;4380823;28;659857;-67
2022/08/17 00:48:15;;;;;;;21.27;14.50;;;16.90;99.90;;;;;;4356379;28;659689;-67
2022/08/17 00:51:07;;;;;;;20.33;15.23;;;16.90;99.90;;;;;;4379647;28;660608;-67
2022/08/17 00:53:57;;;;;;;19.27;14.00;;;16.80;99.90;;;;;;4344022;28;659926;-66
2022/08/17 00:56:47;;;;;;;20.20;13.80;;;16.80;99.90;;;;;;4330666;28;659866;-66
2022/08/17 00:59:36;;;;;;;20.13;13.30;;;16.80;99.90;;;;;;4344809;28;659892;-66
2022/08/17 01:02:23;;;;;;;18.90;13.07;;;16.90;99.90;;;;;;4347794;28;660275;-67
2022/08/17 01:05:12;;;;;;;21.23;14.50;;;16.80;99.90;;;;;;4350231;28;659470;-67
2022/08/17 01:07:59;;;;;;;30.20;15.90;;;16.70;99.90;;;;;;4379043;28;659700;-66
2022/08/17 01:10:49;;;;;;;20.70;14.80;;;16.70;99.90;;;;;;4348769;28;659765;-67
2022/08/17 01:13:40;;;;;;;23.53;14.43;;;16.70;99.90;;;;;;4354150;28;661668;-66
2022/08/17 01:16:28;;;;;;;21.90;14.47;;;16.70;99.90;;;;;;4342139;28;661013;-67
2022/08/17 01:19:17;;;;;;;21.90;14.90;;;16.70;99.90;;;;;;4356849;28;659881;-67
2022/08/17 01:22:06;;;;;;;24.23;14.90;;;16.70;99.90;;;;;;4372786;28;660224;-66
2022/08/17 01:24:57;;;;;;;21.70;15.13;;;16.70;99.90;;;;;;4350814;28;660851;-66
2022/08/17 01:27:44;;;;;;;24.60;14.97;;;16.70;99.90;;;;;;4343427;28;660295;-66
2022/08/17 01:30:32;;;;;;;20.27;14.53;;;16.70;99.90;;;;;;4357949;28;660510;-67
2022/08/17 01:33:19;;;;;;;22.43;15.50;;;16.70;99.90;;;;;;4372949;28;659783;-67
2022/08/17 01:36:06;;;;;;;27.40;14.70;;;16.70;99.90;;;;;;4350052;28;659975;-66
2022/08/17 01:38:54;;;;;;;23.70;15.03;;;16.70;99.90;;;;;;4361100;28;659838;-66
2022/08/17 01:41:42;;;;;;;22.40;15.20;;;16.60;99.90;;;;;;4359873;28;660038;-67
2022/08/17 01:44:29;;;;;;;25.47;16.27;;;16.70;99.90;;;;;;4377163;28;659768;-66
2022/08/17 01:47:16;;;;;;;21.83;16.17;;;16.70;99.90;;;;;;4350910;28;659684;-66
2022/08/17 01:50:11;;;;;;;26.87;16.20;;;16.70;99.90;;;;;;4372504;28;660283;-66
2022/08/17 01:53:01;;;;;;;27.73;15.93;;;16.70;99.90;;;;;;4348634;28;659672;-66
2022/08/17 01:55:50;;;;;;;24.90;15.43;;;16.60;99.90;;;;;;4350491;28;659620;-66
2022/08/17 01:58:39;;;;;;;24.10;15.37;;;16.60;99.90;;;;;;4351205;28;661491;-67
2022/08/17 02:01:28;;;;;;;25.50;15.07;;;16.50;99.90;;;;;;4355830;28;660354;-66
2022/08/17 02:04:15;;;;;;;27.03;15.50;;;16.50;99.90;;;;;;4351488;28;659620;-67
2022/08/17 02:07:02;;;;;;;24.20;15.80;;;16.50;99.90;;;;;;4373942;28;660508;-66
2022/08/17 02:09:50;;;;;;;29.33;16.00;;;16.50;99.90;;;;;;4368429;28;659425;-68
2022/08/17 02:12:37;;;;;;;29.35;15.65;;;16.50;99.90;;;;;;4380550;28;659874;-66
2022/08/17 02:15:26;;;;;;;26.27;15.77;;;16.50;99.90;;;;;;4364889;28;659215;-66
2022/08/17 02:18:13;;;;;;;24.10;16.23;;;16.50;99.90;;;;;;4353652;28;660668;-66
2022/08/17 02:21:01;;;;;;;25.17;16.90;;;16.50;99.90;;;;;;4345158;28;659867;-67
2022/08/17 02:23:48;;;;;;;28.63;17.47;;;16.50;99.90;;;;;;4374318;28;661020;-67
2022/08/17 02:26:36;;;;;;;29.03;16.53;;;16.50;99.90;;;;;;4356186;28;660916;-68
2022/08/17 02:29:23;;;;;;;24.70;15.83;;;16.60;99.90;;;;;;4378793;28;661025;-66
2022/08/17 02:32:17;;;;;;;24.83;16.73;;;16.60;99.90;;;;;;4362953;28;659433;-68
2022/08/17 02:35:05;;;;;;;29.20;16.00;;;16.60;99.90;;;;;;4349424;28;659504;-66
2022/08/17 02:37:52;;;;;;;22.47;15.83;;;16.50;99.90;;;;;;4346142;28;660393;-66
2022/08/17 02:40:39;;;;;;;28.83;16.50;;;16.50;99.90;;;;;;4373397;28;659895;-66
2022/08/17 02:43:27;;;;;;;28.37;16.23;;;16.60;99.90;;;;;;4361605;28;659706;-66
2022/08/17 02:46:14;;;;;;;28.77;15.97;;;16.60;99.90;;;;;;4380557;28;659855;-66
2022/08/17 02:49:03;;;;;;;27.13;15.70;;;16.50;99.90;;;;;;4341327;28;660180;-66
2022/08/17 02:51:50;;;;;;;24.53;15.57;;;16.50;99.90;;;;;;4355685;28;659917;-67
2022/08/17 02:54:37;;;;;;;24.25;16.50;;;16.50;99.90;;;;;;4382630;28;659431;-66
2022/08/17 02:57:24;;;;;;;25.27;16.23;;;16.50;99.90;;;;;;4378669;28;659993;-66
2022/08/17 03:00:14;;;;;;;24.50;15.73;;;16.50;99.90;;;;;;4347768;28;660085;-66
2022/08/17 03:03:02;;;;;;;25.10;15.93;;;16.50;99.90;;;;;;4356843;28;659976;-66
2022/08/17 03:05:52;;;;;;;20.37;14.50;;;16.40;99.90;;;;;;4376042;28;659686;-68
2022/08/17 03:08:39;;;;;;;25.47;16.17;;;16.40;99.90;;;;;;4372786;28;659385;-66
2022/08/17 03:11:26;;;;;;;24.17;16.67;;;16.40;99.90;;;;;;4345164;28;660448;-67
2022/08/17 03:14:13;;;;;;;26.93;15.50;;;16.40;99.90;;;;;;4361626;28;661012;-67
2022/08/17 03:17:00;;;;;;;26.57;16.37;;;16.40;99.90;;;;;;4360932;28;660494;-66
2022/08/17 03:19:47;;;;;;;28.57;15.77;;;16.30;99.90;;;;;;4363470;28;660822;-66
2022/08/17 03:22:37;;;;;;;27.30;16.33;;;16.30;99.90;;;;;;4369271;28;660326;-68
2022/08/17 03:25:26;;;;;;;25.37;17.03;;;16.30;99.90;;;;;;4366405;28;659228;-66
2022/08/17 03:28:13;;;;;;;24.33;17.07;;;16.30;99.90;;;;;;4358920;28;660191;-67
2022/08/17 03:31:00;;;;;;;28.67;18.53;;;16.30;99.90;;;;;;4354764;28;659706;-68
2022/08/17 03:33:47;;;;;;;30.95;19.02;;;16.30;99.90;;;;;;4371531;28;659692;-66
2022/08/17 03:36:34;;;;;;;29.77;19.67;;;16.40;99.90;;;;;;4363067;28;660165;-67
2022/08/17 03:39:23;;;;;;;29.67;19.93;;;16.40;99.90;;;;;;4357810;28;660104;-66
2022/08/17 03:42:19;;;;;;;28.43;19.40;;;16.40;99.90;;;;;;4360433;28;659686;-68
2022/08/17 03:45:07;;;;;;;32.43;20.03;;;16.50;99.90;;;;;;4358501;28;660495;-66
2022/08/17 03:57:10;;;;;;;25.57;17.60;;;16.40;99.90;;;;;;4306572;28;660326;-66
2022/08/17 03:59:58;;;;;;;27.20;17.30;;;16.50;99.90;;;;;;4345568;28;660637;-66
2022/08/17 04:02:45;;;;;;;35.73;17.50;;;16.60;99.90;;;;;;4345188;28;659759;-67
2022/08/17 04:05:32;;;;;;;27.80;18.23;;;16.60;99.90;;;;;;4372203;28;660284;-67
2022/08/17 04:08:19;;;;;;;26.00;16.73;;;16.60;99.90;;;;;;4368457;28;659921;-66
2022/08/17 04:11:06;;;;;;;29.63;17.70;;;16.60;99.90;;;;;;4351164;28;660055;-66
2022/08/17 04:13:56;;;;;;;27.53;17.90;;;16.70;99.90;;;;;;4368782;28;659986;-66
2022/08/17 04:16:43;;;;;;;29.97;17.23;;;16.80;99.90;;;;;;4336867;28;660382;-66
2022/08/17 04:19:30;;;;;;;27.77;17.67;;;16.80;99.90;;;;;;4362168;28;659583;-68
2022/08/17 04:22:17;;;;;;;24.20;17.27;;;16.80;99.90;;;;;;4363494;28;660465;-66
2022/08/17 04:25:08;;;;;;;35.87;17.40;;;16.80;99.90;;;;;;4370649;28;659415;-67
2022/08/17 04:27:55;;;;;;;27.13;17.23;;;16.80;99.90;;;;;;4329106;28;659686;-67
2022/08/17 04:30:44;;;;;;;29.10;18.33;;;16.80;99.90;;;;;;4369357;28;661096;-67
2022/08/17 04:33:32;;;;;;;26.27;16.97;;;16.90;99.90;;;;;;4345745;28;659968;-67
2022/08/17 04:36:19;;;;;;;27.13;17.37;;;17.00;99.90;;;;;;4359545;28;659595;-66
2022/08/17 04:39:06;;;;;;;68.23;37.67;;;17.10;99.90;;;;;;4350653;28;660156;-67
2022/08/17 04:42:16;;;;;;;56.20;33.97;;;17.30;99.90;;;;;;4366671;28;660989;-66
2022/08/17 04:45:03;;;;;;;63.57;33.23;;;17.50;99.90;;;;;;4352122;28;659858;-66
2022/08/17 04:47:52;;;;;;;66.00;37.00;;;17.80;99.90;;;;;;4354758;28;660376;-68
2022/08/17 04:50:39;;;;;;;69.30;36.57;;;17.90;99.90;;;;;;4372160;28;660083;-66
2022/08/17 04:53:27;;;;;;;59.60;38.07;;;18.00;99.90;;;;;;4356519;28;660673;-67
2022/08/17 04:56:15;;;;;;;59.37;35.23;;;18.10;99.90;;;;;;4364852;28;659491;-66
2022/08/17 04:59:03;;;;;;;58.63;35.70;;;18.20;99.90;;;;;;4344415;28;660210;-66
2022/08/17 05:01:51;;;;;;;65.40;37.97;;;18.30;99.90;;;;;;4354885;28;659781;-67
2022/08/17 05:04:40;;;;;;;61.63;36.27;;;18.30;99.90;;;;;;4365886;28;660070;-66
2022/08/17 05:07:27;;;;;;;55.87;35.43;;;18.40;99.90;;;;;;4347117;28;660128;-66
2022/08/17 05:10:14;;;;;;;54.83;33.40;;;18.50;99.90;;;;;;4373998;28;659319;-66
2022/08/17 05:13:03;;;;;;;50.37;31.33;;;18.60;99.90;;;;;;4351776;28;659942;-66
2022/08/17 05:15:53;;;;;;;46.13;31.03;;;18.70;99.90;;;;;;4350555;28;660048;-68
2022/08/17 05:18:41;;;;;;;50.00;30.53;;;18.80;99.90;;;;;;4343389;28;659384;-67
2022/08/17 05:21:29;;;;;;;55.57;31.40;;;18.90;99.90;;;;;;4382252;28;660218;-66
2022/08/17 05:24:16;;;;;;;48.87;30.30;;;18.90;99.90;;;;;;4357677;28;659778;-66
2022/08/17 05:27:03;;;;;;;50.20;29.63;;;19.00;99.90;;;;;;4377083;28;660433;-66
2022/08/17 05:29:51;;;;;;;42.40;28.87;;;19.20;99.90;;;;;;4354770;28;659967;-66
2022/08/17 05:32:38;;;;;;;46.33;28.43;;;19.30;99.90;;;;;;4369271;28;660491;-66
2022/08/17 05:35:25;;;;;;;40.27;25.93;;;19.30;99.90;;;;;;4354884;28;659523;-68
2022/08/17 05:38:14;;;;;;;44.90;27.60;;;19.30;99.90;;;;;;4358770;28;660834;-66
2022/08/17 05:41:06;;;;;;;50.20;30.87;;;19.40;99.90;;;;;;4347323;28;660429;-66
2022/08/17 05:43:53;;;;;;;50.53;30.57;;;19.50;99.90;;;;;;4338718;28;660355;-68
2022/08/17 05:46:41;;;;;;;52.47;32.23;;;19.50;99.90;;;;;;4340164;28;660565;-68
2022/08/17 05:49:29;;;;;;;54.57;32.87;;;19.50;99.90;;;;;;4364705;28;660083;-66
2022/08/17 05:52:20;;;;;;;50.33;30.70;;;19.50;99.90;;;;;;4330622;28;659960;-66
2022/08/17 05:55:14;;;;;;;52.87;30.83;;;19.70;99.90;;;;;;4332007;28;660167;-66
2022/08/17 05:58:08;;;;;;;52.70;31.77;;;19.80;99.90;;;;;;4346058;28;659665;-67
2022/08/17 06:00:58;;;;;;;45.07;30.73;;;20.00;99.90;;;;;;4350323;28;659720;-68
2022/08/17 06:03:48;;;;;;;57.77;31.50;;;20.00;99.90;;;;;;4353294;28;659821;-66
2022/08/17 06:06:39;;;;;;;48.63;28.57;;;20.10;99.90;;;;;;4351575;28;659992;-67
2022/08/17 06:09:34;;;;;;;49.30;30.27;;;20.40;99.90;;;;;;4350282;28;659952;-66
2022/08/17 06:12:34;;;;;;;48.30;29.03;;;20.50;99.90;;;;;;4337241;28;660313;-65
2022/08/17 06:15:26;;;;;;;48.40;27.87;;;20.60;99.90;;;;;;4328869;28;659832;-66
2022/08/17 06:18:13;;;;;;;44.60;27.47;;;20.80;99.90;;;;;;4358426;28;660364;-66
2022/08/17 06:21:02;;;;;;;46.03;26.63;;;20.90;99.90;;;;;;4354830;28;659837;-66
2022/08/17 06:23:53;;;;;;;44.03;26.37;;;21.00;99.90;;;;;;4375640;28;660267;-68
2022/08/17 06:26:40;;;;;;;44.40;27.23;;;21.20;99.90;;;;;;4348664;28;660233;-67
2022/08/17 06:29:36;;;;;;;43.30;24.53;;;21.20;99.90;;;;;;4370670;28;659830;-66
2022/08/17 06:32:23;;;;;;;37.10;24.87;;;21.40;99.90;;;;;;4345673;28;660007;-66
2022/08/17 06:35:11;;;;;;;39.17;24.03;;;21.50;99.90;;;;;;4343919;28;659739;-66
2022/08/17 06:38:03;;;;;;;41.77;24.30;;;21.50;99.90;;;;;;4362125;28;659900;-68
2022/08/17 06:40:57;;;;;;;37.17;23.57;;;21.70;99.90;;;;;;4345816;28;659655;-68
2022/08/17 06:43:55;;;;;;;40.37;24.90;;;21.80;99.90;;;;;;4354898;28;659482;-67
2022/08/17 06:46:47;;;;;;;46.90;25.33;;;21.90;99.90;;;;;;4335027;28;660829;-66
2022/08/17 06:49:39;;;;;;;37.47;24.30;;;22.10;99.90;;;;;;4352904;28;660128;-67
2022/08/17 06:52:28;;;;;;;34.07;23.57;;;22.30;99.90;;;;;;4330154;28;659920;-67
2022/08/17 06:55:20;;;;;;;39.13;22.80;;;22.60;99.90;;;;;;4331928;28;660007;-67
2022/08/17 06:58:07;;;;;;;33.27;20.73;;;22.80;99.90;;;;;;4327718;28;660317;-67
2022/08/17 07:00:57;;;;;;;38.07;21.63;;;23.00;99.90;;;;;;4341844;28;660230;-66
2022/08/17 07:03:52;;;;;;;34.07;21.17;;;23.10;99.90;;;;;;4329840;28;660732;-66
2022/08/17 07:06:41;;;;;;;29.77;19.87;;;23.20;99.90;;;;;;4325807;28;659669;-66
2022/08/17 07:09:30;;;;;;;27.37;17.97;;;23.40;99.90;;;;;;4340996;28;659947;-67
2022/08/17 07:12:21;;;;;;;30.20;18.27;;;23.50;99.90;;;;;;4337978;28;660655;-67
2022/08/17 07:15:11;;;;;;;27.50;17.27;;;23.70;99.90;;;;;;4344809;28;660094;-66
2022/08/17 07:17:59;;;;;;;25.67;17.27;;;23.90;99.90;;;;;;4339260;28;660397;-66
2022/08/17 07:20:47;;;;;;;25.33;16.20;;;24.00;99.90;;;;;;4349143;28;660011;-68
2022/08/17 07:23:40;;;;;;;23.50;17.10;;;24.10;99.90;;;;;;4373270;28;659652;-66
2022/08/17 07:26:28;;;;;;;23.80;15.37;;;24.40;99.90;;;;;;4316391;28;660314;-67
2022/08/17 07:29:17;;;;;;;26.57;16.83;;;24.70;99.90;;;;;;4350092;28;660011;-68
2022/08/17 07:32:04;;;;;;;24.23;15.73;;;24.90;99.90;;;;;;4365084;28;659806;-66
2022/08/17 07:35:07;;;;;;;24.20;16.17;;;24.80;99.90;;;;;;4349407;28;659826;-67
2022/08/17 07:38:08;;;;;;;23.43;13.50;;;25.00;99.90;;;;;;4331140;28;659866;-66
2022/08/17 07:41:03;;;;;;;24.20;15.43;;;25.30;99.90;;;;;;4321013;28;660271;-66
2022/08/17 07:43:51;;;;;;;27.37;16.13;;;25.30;99.90;;;;;;4320966;28;659727;-66
2022/08/17 07:49:52;;;;;;;22.08;14.70;;;25.90;99.90;;;;;;4310479;28;659680;-66
2022/08/17 07:52:40;;;;;;;20.67;14.20;;;26.00;99.90;;;;;;4352149;28;659754;-66
2022/08/17 07:55:31;;;;;;;21.85;15.10;;;25.80;99.90;;;;;;4356225;28;659914;-66
2022/08/17 07:58:19;;;;;;;25.67;14.07;;;26.20;99.90;;;;;;4328659;28;661288;-65
2022/08/17 08:01:08;;;;;;;22.30;13.40;;;26.50;99.90;;;;;;4321747;28;659367;-66
2022/08/17 08:03:56;;;;;;;26.10;14.02;;;26.80;99.90;;;;;;4339641;28;659714;-67
2022/08/17 08:06:47;;;;;;;21.52;13.63;;;26.70;99.90;;;;;;4356485;28;660232;-66
2022/08/17 08:09:38;;;;;;;21.13;12.82;;;27.00;99.90;;;;;;4319349;28;659892;-65
2022/08/17 08:12:32;;;;;;;22.05;12.85;;;27.20;99.90;;;;;;4306875;28;659838;-67
2022/08/17 08:15:21;;;;;;;24.70;13.25;;;27.40;99.90;;;;;;4326048;28;659720;-68
2022/08/17 08:18:20;;;;;;;21.75;13.60;;;27.20;99.90;;;;;;4341735;28;660751;-67
2022/08/17 08:21:09;;;;;;;22.42;13.00;;;27.70;99.90;;;;;;4325005;28;660125;-68
2022/08/17 08:24:00;;;;;;;24.47;11.90;;;28.00;99.90;;;;;;4333087;28;659493;-67
2022/08/17 08:26:50;;;;;;;21.60;12.30;;;28.10;99.90;;;;;;4333737;28;660706;-67
2022/08/17 08:29:42;;;;;;;19.13;11.52;;;28.30;99.90;;;;;;4354096;28;660733;-68
2022/08/17 08:32:36;;;;;;;28.98;12.55;;;28.20;99.90;;;;;;4337295;28;659570;-67
2022/08/17 08:35:29;;;;;;;18.40;11.52;;;28.50;99.90;;;;;;4323111;28;659884;-67
2022/08/17 08:38:21;;;;;;;21.77;11.87;;;28.70;99.90;;;;;;4309602;28;660729;-68
2022/08/17 08:41:16;;;;;;;26.65;11.57;;;28.90;99.90;;;;;;4349550;28;659910;-67
2022/08/17 08:44:08;;;;;;;24.00;11.93;;;28.40;99.90;;;;;;4345468;28;660280;-67
2022/08/17 08:47:00;;;;;;;25.27;11.05;;;28.20;99.90;;;;;;4317855;28;660010;-68
2022/08/17 08:50:11;;;;;;;20.40;11.18;;;28.70;99.90;;;;;;4340804;28;660423;-68
2022/08/17 08:53:04;;;;;;;26.90;12.20;;;28.90;99.90;;;;;;4339783;28;659469;-68
2022/08/17 08:55:53;;;;;;;21.60;11.70;;;29.20;99.90;;;;;;4310576;28;661203;-68
2022/08/17 08:58:47;;;;;;;22.00;12.77;;;28.60;99.90;;;;;;4341887;28;659301;-68
2022/08/17 09:01:37;;;;;;;19.17;12.02;;;28.40;99.90;;;;;;4332387;28;659522;-67
2022/08/17 09:04:34;;;;;;;19.67;12.37;;;28.80;99.90;;;;;;4336303;28;659810;-68
2022/08/17 09:07:29;;;;;;;21.48;12.75;;;29.50;99.90;;;;;;4340155;28;659623;-67
2022/08/17 09:10:20;;;;;;;16.83;11.18;;;30.10;99.90;;;;;;4313929;28;659943;-68
2022/08/17 09:13:11;;;;;;;20.40;11.55;;;29.70;97.50;;;;;;4341927;28;661043;-68
2022/08/17 09:16:00;;;;;;;26.15;11.38;;;29.50;97.90;;;;;;4338296;28;660876;-68
2022/08/17 09:18:50;;;;;;;16.55;11.73;;;29.50;97.40;;;;;;4346131;28;660372;-68
2022/08/17 09:21:41;;;;;;;26.02;12.98;;;28.80;98.70;;;;;;4338621;28;659939;-67
2022/08/17 09:24:31;;;;;;;19.05;12.77;;;29.40;99.90;;;;;;4338380;28;659881;-68
2022/08/17 09:27:20;;;;;;;21.48;11.50;;;29.80;96.90;;;;;;4332359;28;660224;-68
2022/08/17 09:30:09;;;;;;;26.47;12.70;;;29.00;95.40;;;;;;4335514;28;660295;-67
2022/08/17 09:32:58;;;;;;;24.58;13.52;;;29.30;95.30;;;;;;4335559;28;659230;-68
2022/08/17 09:35:47;;;;;;;24.25;13.23;;;29.50;99.40;;;;;;4341733;28;659921;-69
2022/08/17 09:38:41;;;;;;;23.42;12.63;;;30.30;94.90;;;;;;4361676;28;659479;-68
2022/08/17 09:41:31;;;;;;;24.50;12.38;;;30.10;92.80;;;;;;4335555;28;660057;-68
2022/08/17 09:44:22;;;;;;;21.93;13.00;;;30.50;92.50;;;;;;4340256;28;660095;-68
2022/08/17 09:47:12;;;;;;;23.75;12.43;;;29.80;93.10;;;;;;4345884;28;659501;-68
2022/08/17 09:50:03;;;;;;;21.95;12.75;;;29.20;92.50;;;;;;4332493;28;659880;-68
2022/08/17 09:52:51;;;;;;;16.38;11.55;;;28.80;97.90;;;;;;4319857;28;660092;-68
2022/08/17 09:55:54;;;;;;;20.50;10.65;;;28.50;94.70;;;;;;4362786;28;660422;-68
2022/08/17 09:58:49;;;;;;;21.90;11.35;;;29.30;94.60;;;;;;4339218;28;660312;-68
2022/08/17 10:01:39;;;;;;;20.37;12.83;;;28.90;93.70;;;;;;4323044;28;659631;-68
2022/08/17 10:04:37;;;;;;;30.45;12.10;;;29.00;96.30;;;;;;4339287;28;660184;-68
2022/08/17 10:07:29;;;;;;;23.05;12.77;;;29.10;94.50;;;;;;4363359;28;660201;-68
2022/08/17 10:10:19;;;;;;;16.33;11.63;;;28.60;95.70;;;;;;4336983;28;660030;-68
2022/08/17 10:13:10;;;;;;;17.73;10.77;;;28.30;96.10;;;;;;4347868;28;659936;-68
2022/08/17 10:16:00;;;;;;;18.60;11.18;;;28.20;95.70;;;;;;4337145;28;660029;-68
2022/08/17 10:18:54;;;;;;;22.23;11.70;;;27.80;95.30;;;;;;4341217;28;660254;-69
2022/08/17 10:27:54;;;;;;;21.92;12.23;;;30.30;91.40;;;;;;4339202;28;659614;-68
2022/08/17 10:30:47;;;;;;;20.90;11.93;;;29.60;92.20;;;;;;4346669;28;659960;-68
2022/08/17 10:33:37;;;;;;;20.95;12.05;;;29.00;93.40;;;;;;4337808;28;660776;-68
2022/08/17 10:36:26;;;;;;;20.58;11.73;;;29.00;93.20;;;;;;4342343;28;659610;-68
2022/08/17 10:39:19;;;;;;;18.27;11.45;;;29.90;92.70;;;;;;4338493;28;660210;-69
2022/08/17 10:42:24;;;;;;;22.23;11.40;;;30.90;93.60;;;;;;4313644;28;661249;-68
2022/08/17 10:45:17;;;;;;;15.25;11.38;;;30.90;88.00;;;;;;4342632;28;659948;-68
2022/08/17 10:48:27;;;;;;;19.58;11.45;;;30.70;81.50;;;;;;4340078;28;659682;-68
2022/08/17 10:51:35;;;;;;;18.33;12.10;;;29.70;86.70;;;;;;4336227;28;659806;-68
2022/08/17 10:54:45;;;;;;;16.73;11.65;;;29.50;90.00;;;;;;4314798;28;659801;-67
2022/08/17 10:57:40;;;;;;;18.63;12.05;;;29.40;87.40;;;;;;4312769;28;660505;-68
2022/08/17 11:00:57;;;;;;;19.48;10.60;;;29.40;91.00;;;;;;4314965;28;659951;-68
2022/08/17 11:03:52;;;;;;;18.55;11.05;;;30.90;84.30;;;;;;4278418;29;659746;-68
2022/08/17 11:06:44;;;;;;;23.38;12.60;;;31.80;80.80;;;;;;4357616;28;659972;-68
2022/08/17 11:09:48;;;;;;;20.80;12.27;;;31.00;78.20;;;;;;4337132;28;659759;-68
2022/08/17 11:12:39;;;;;;;20.53;12.33;;;29.60;81.20;;;;;;4316495;28;660008;-68
2022/08/17 11:15:33;;;;;;;18.98;11.88;;;29.00;86.60;;;;;;4339118;28;660307;-68
2022/08/17 11:18:32;;;;;;;25.05;11.50;;;28.40;90.30;;;;;;4340329;28;659492;-68
2022/08/17 11:21:39;;;;;;;18.30;12.17;;;29.00;90.30;;;;;;4334493;28;659314;-68
2022/08/17 11:24:31;;;;;;;16.45;11.85;;;30.10;87.00;;;;;;4340046;28;659710;-69
2022/08/17 11:27:23;;;;;;;15.53;10.27;;;31.20;79.70;;;;;;4333040;28;661269;-69
2022/08/17 11:30:12;;;;;;;16.63;11.33;;;31.20;76.30;;;;;;4322723;28;660375;-68
2022/08/17 11:32:59;;;;;;;23.95;11.45;;;31.30;72.90;;;;;;4362693;28;659629;-68
2022/08/17 11:35:48;;;;;;;26.53;11.67;;;31.70;77.70;;;;;;4339406;28;659679;-69
2022/08/17 11:38:41;;;;;;;17.50;10.85;;;30.80;73.90;;;;;;4340124;28;659633;-69
2022/08/17 11:41:30;;;;;;;16.13;11.57;;;30.00;76.20;;;;;;4339375;28;660976;-68
2022/08/17 11:44:39;;;;;;;14.68;11.48;;;29.70;77.10;;;;;;4342698;28;660765;-68
2022/08/17 11:54:00;;;;;;;18.17;11.63;;;31.60;78.00;;;;;;4336662;28;660596;-68
2022/08/17 11:56:48;;;;;;;18.13;11.53;;;31.30;72.90;;;;;;4318672;28;659574;-68
2022/08/17 11:59:55;;;;;;;13.90;11.18;;;32.10;73.50;;;;;;4346824;28;660100;-69
2022/08/17 12:02:44;;;;;;;20.73;10.57;;;32.70;70.60;;;;;;4318488;28;659954;-67
2022/08/17 12:05:34;;;;;;;15.68;10.90;;;32.60;66.40;;;;;;4343603;28;660343;-68
2022/08/17 12:08:21;;;;;;;16.67;12.02;;;32.30;65.80;;;;;;4346610;28;660134;-68
2022/08/17 12:11:10;;;;;;;15.25;11.10;;;31.30;70.80;;;;;;4359295;28;660619;-68
2022/08/17 12:13:58;;;;;;;13.45;10.00;;;32.70;69.20;;;;;;4344805;28;660572;-68
2022/08/17 12:16:45;;;;;;;15.70;10.93;;;32.00;60.30;;;;;;4355918;28;659878;-68
2022/08/17 12:19:33;;;;;;;11.93;10.25;;;31.40;63.90;;;;;;4369053;28;659769;-67
2022/08/17 12:22:22;;;;;;;16.50;11.02;;;32.60;64.10;;;;;;4355833;28;660300;-69
2022/08/17 12:25:11;;;;;;;15.88;10.70;;;33.10;65.20;;;;;;4364796;28;659695;-69
2022/08/17 12:27:59;;;;;;;14.52;10.60;;;32.80;62.90;;;;;;4349207;28;659862;-69
2022/08/17 12:30:49;;;;;;;20.40;10.75;;;32.70;65.70;;;;;;4359851;28;660400;-69
2022/08/17 12:33:36;;;;;;;17.00;11.45;;;32.80;64.70;;;;;;4350837;28;660327;-70
2022/08/17 12:36:24;;;;;;;19.23;11.50;;;32.40;64.10;;;;;;4368288;28;661455;-70
2022/08/17 12:39:15;;;;;;;14.27;10.02;;;33.20;66.80;;;;;;4336318;28;659592;-70
2022/08/17 12:42:03;;;;;;;17.05;11.38;;;33.90;61.70;;;;;;4346441;28;660294;-69
2022/08/17 12:44:52;;;;;;;12.85;10.93;;;34.10;60.70;;;;;;4336438;28;659585;-70
2022/08/17 12:47:39;;;;;;;17.90;10.57;;;33.60;58.90;;;;;;4361381;28;659252;-69
2022/08/17 12:50:26;;;;;;;15.88;10.70;;;33.60;61.30;;;;;;4344312;28;660485;-70
2022/08/17 12:53:13;;;;;;;12.57;10.50;;;32.30;61.10;;;;;;4360934;28;661370;-70
2022/08/17 12:56:01;;;;;;;15.95;10.38;;;31.70;64.30;;;;;;4341536;28;660071;-70
2022/08/17 12:58:52;;;;;;;18.23;10.50;;;31.80;64.80;;;;;;4360491;28;660295;-69
2022/08/17 13:01:41;;;;;;;13.20;11.55;;;31.60;65.10;;;;;;4334409;28;660621;-69
2022/08/17 13:04:29;;;;;;;18.73;11.07;;;31.30;66.60;;;;;;4338952;28;660119;-69
2022/08/17 13:07:26;;;;;;;13.98;11.15;;;31.90;68.30;;;;;;4357413;28;659760;-69
2022/08/17 13:10:20;;;;;;;17.13;10.87;;;32.50;65.50;;;;;;4337994;28;659634;-70
2022/08/17 13:13:18;;;;;;;16.52;10.73;;;32.70;61.40;;;;;;4322244;28;660086;-70
2022/08/17 13:16:08;;;;;;;15.50;10.70;;;32.60;64.00;;;;;;4342172;28;659724;-70
2022/08/17 13:19:05;;;;;;;15.70;10.98;;;33.20;61.90;;;;;;4352327;28;659794;-70
2022/08/17 13:21:55;;;;;;;19.43;10.70;;;33.10;61.40;;;;;;4329067;28;659656;-70
2022/08/17 13:24:51;;;;;;;18.13;11.48;;;32.70;60.90;;;;;;4345051;28;660478;-70
2022/08/17 13:27:38;;;;;;;13.77;11.03;;;32.80;59.20;;;;;;4353459;28;659603;-70
2022/08/17 13:30:28;;;;;;;18.15;10.55;;;33.40;60.70;;;;;;4351142;28;660107;-70
2022/08/17 13:33:24;;;;;;;13.75;11.25;;;33.90;58.00;;;;;;4348260;28;659884;-71
2022/08/17 13:36:12;;;;;;;17.02;10.63;;;34.20;59.20;;;;;;4340292;28;659772;-70
2022/08/17 13:39:06;;;;;;;20.02;10.65;;;34.00;57.80;;;;;;4367995;28;659640;-70
2022/08/17 13:41:54;;;;;;;16.90;10.10;;;33.90;55.90;;;;;;4352977;28;660481;-70
2022/08/17 13:44:41;;;;;;;18.58;9.15;;;34.70;58.00;;;;;;4354283;28;659657;-70
2022/08/17 13:47:29;;;;;;;12.85;8.45;;;35.20;56.90;;;;;;4370497;28;658649;-70
2022/08/17 13:50:20;;;;;;;10.77;9.68;;;34.00;51.80;;;;;;4353063;28;658937;-70
2022/08/17 13:53:17;;;;;;;13.18;9.85;;;33.40;55.60;;;;;;4355191;28;658445;-69
2022/08/17 13:56:06;;;;;;;15.90;10.30;;;33.60;57.30;;;;;;4351890;28;658392;-69
2022/08/17 13:58:55;;;;;;;15.82;10.20;;;33.70;56.30;;;;;;4350156;28;659685;-69
2022/08/17 14:01:43;;;;;;;14.10;10.50;;;33.60;54.80;;;;;;4348087;28;660100;-68
2022/08/17 14:04:31;;;;;;;15.20;10.13;;;33.20;54.90;;;;;;4353125;28;659947;-69
2022/08/17 14:07:30;;;;;;;13.48;10.10;;;33.30;56.50;;;;;;4373499;28;659820;-69
2022/08/17 14:10:19;;;;;;;13.90;10.15;;;33.90;58.60;;;;;;4323521;28;660946;-69
2022/08/17 14:13:06;;;;;;;17.75;10.68;;;33.20;57.50;;;;;;4355251;28;660313;-70
2022/08/17 14:15:53;;;;;;;20.55;11.00;;;33.50;58.30;;;;;;4373186;28;660817;-70
2022/08/17 14:18:40;;;;;;;15.13;10.67;;;33.50;56.10;;;;;;4353180;28;659583;-69
2022/08/17 14:21:27;;;;;;;14.40;9.93;;;32.90;56.30;;;;;;4372344;28;660521;-69
2022/08/17 14:24:20;;;;;;;17.90;10.60;;;32.50;56.90;;;;;;4369754;28;658298;-70
2022/08/17 14:27:08;;;;;;;14.73;9.35;;;32.20;59.20;;;;;;4326806;28;659842;-69
2022/08/17 14:29:56;;;;;;;16.42;10.60;;;32.30;59.20;;;;;;4355179;28;659218;-69
2022/08/17 14:32:44;;;;;;;13.73;10.68;;;32.10;60.30;;;;;;4371351;28;660224;-69
2022/08/17 14:35:31;;;;;;;14.90;10.97;;;32.40;60.10;;;;;;4353377;28;659628;-70
2022/08/17 14:38:19;;;;;;;16.00;10.93;;;32.40;58.10;;;;;;4375644;28;659669;-69